createdAt,value
2018-09-21T00:00:39.654Z,99077.00
2018-09-21T00:03:11.308Z,99072.00
2018-09-21T00:05:41.263Z,99068.00
2018-09-21T00:08:11.144Z,99071.00
2018-09-21T00:10:41.026Z,99070.00
2018-09-21T00:13:10.927Z,99067.00
2018-09-21T00:15:40.854Z,99071.00
2018-09-21T00:18:10.812Z,99063.00
2018-09-21T00:20:40.711Z,99060.00
2018-09-21T00:23:10.620Z,99062.00
2018-09-21T00:25:40.523Z,99057.00
2018-09-21T00:28:11.102Z,99058.00
2018-09-21T00:30:41.019Z,99060.00
2018-09-21T00:33:10.930Z,99063.00
2018-09-21T00:35:40.832Z,99064.00
2018-09-21T00:38:10.748Z,99058.00
2018-09-21T00:40:40.643Z,99058.00
2018-09-21T00:43:10.549Z,99065.00
2018-09-21T00:45:40.461Z,99062.00
2018-09-21T00:48:10.383Z,99063.00
2018-09-21T00:50:40.344Z,99064.00
2018-09-21T00:53:10.239Z,99062.00
2018-09-21T00:55:40.196Z,99061.00
2018-09-21T00:58:10.126Z,99062.00
2018-09-21T01:00:40.042Z,99063.00
2018-09-21T01:03:09.963Z,99061.00
2018-09-21T01:05:39.858Z,99056.00
2018-09-21T01:08:09.766Z,99059.00
2018-09-21T01:10:39.675Z,99055.00
2018-09-21T01:13:09.588Z,99063.00
2018-09-21T01:15:39.490Z,99066.00
2018-09-21T01:18:09.408Z,99064.00
2018-09-21T01:20:39.303Z,99066.00
2018-09-21T01:23:09.213Z,99063.00
2018-09-21T01:25:39.107Z,99055.00
2018-09-21T01:28:09.091Z,99050.00
2018-09-21T01:30:38.987Z,99046.00
2018-09-21T01:33:08.911Z,99047.00
2018-09-21T01:35:38.804Z,99050.00
2018-09-21T01:38:08.720Z,99054.00
2018-09-21T01:40:38.623Z,99051.00
2018-09-21T01:43:08.514Z,99048.00
2018-09-21T01:45:38.408Z,99045.00
2018-09-21T01:48:08.339Z,99048.00
2018-09-21T01:50:38.294Z,99036.00
2018-09-21T01:53:08.212Z,99034.00
2018-09-21T01:55:38.122Z,99033.00
2018-09-21T01:58:08.078Z,99021.00
2018-09-21T02:00:37.983Z,99019.00
2018-09-21T02:03:07.947Z,99013.00
2018-09-21T02:05:37.855Z,99018.00
2018-09-21T02:08:07.767Z,99015.00
2018-09-21T02:10:37.740Z,99012.00
2018-09-21T02:13:07.646Z,99008.00
2018-09-21T02:15:37.523Z,99009.00
2018-09-21T02:18:07.403Z,99003.00
2018-09-21T02:20:37.274Z,99002.00
2018-09-21T02:23:07.196Z,99004.00
2018-09-21T02:25:37.071Z,98991.00
2018-09-21T02:28:06.991Z,98991.00
2018-09-21T02:30:36.896Z,98988.00
2018-09-21T02:33:06.859Z,98990.00
2018-09-21T02:35:36.730Z,98987.00
2018-09-21T02:38:06.772Z,98986.00
2018-09-21T02:40:36.664Z,98979.00
2018-09-21T02:43:06.625Z,98980.00
2018-09-21T02:45:36.491Z,98978.00
2018-09-21T02:48:06.804Z,98975.00
2018-09-21T02:50:37.642Z,98968.00
2018-09-21T02:53:07.523Z,98972.00
2018-09-21T02:55:37.391Z,98967.00
2018-09-21T02:58:07.276Z,98965.00
2018-09-21T03:00:37.221Z,98968.00
2018-09-21T03:03:07.056Z,98961.00
2018-09-21T03:05:36.934Z,98957.00
2018-09-21T03:08:06.824Z,98956.00
2018-09-21T03:10:36.703Z,98960.00
2018-09-21T03:13:07.110Z,98961.00
2018-09-21T03:15:36.983Z,98957.00
2018-09-21T03:18:06.871Z,98950.00
2018-09-21T03:20:36.743Z,98941.00
2018-09-21T03:23:06.648Z,98938.00
2018-09-21T03:25:36.525Z,98941.00
2018-09-21T03:28:06.425Z,98941.00
2018-09-21T03:30:36.311Z,98941.00
2018-09-21T03:33:06.238Z,98931.00
2018-09-21T03:35:36.111Z,98933.00
2018-09-21T03:38:06.011Z,98927.00
2018-09-21T03:40:35.883Z,98923.00
2018-09-21T03:43:06.300Z,98926.00
2018-09-21T03:45:36.172Z,98925.00
2018-09-21T03:48:06.064Z,98921.00
2018-09-21T03:50:35.937Z,98922.00
2018-09-21T03:53:05.828Z,98921.00
2018-09-21T03:55:35.710Z,98912.00
2018-09-21T03:58:05.867Z,98913.00
2018-09-21T04:00:35.743Z,98909.00
2018-09-21T04:03:05.846Z,98909.00
2018-09-21T04:05:35.806Z,98905.00
2018-09-21T04:08:05.753Z,98905.00
2018-09-21T04:10:35.631Z,98903.00
2018-09-21T04:13:05.624Z,98896.00
2018-09-21T04:15:35.521Z,98894.00
2018-09-21T04:18:05.852Z,98891.00
2018-09-21T04:20:35.725Z,98892.00
2018-09-21T04:23:05.621Z,98882.00
2018-09-21T04:25:35.501Z,98881.00
2018-09-21T04:28:05.371Z,98878.00
2018-09-21T04:30:35.263Z,98878.00
2018-09-21T04:33:05.150Z,98872.00
2018-09-21T04:35:35.345Z,98871.00
2018-09-21T04:38:05.252Z,98869.00
2018-09-21T04:40:35.115Z,98862.00
2018-09-21T04:43:05.033Z,98854.00
2018-09-21T04:45:34.942Z,98853.00
2018-09-21T04:48:04.793Z,98846.00
2018-09-21T04:50:34.695Z,98850.00
2018-09-21T04:53:04.651Z,98852.00
2018-09-21T04:55:34.607Z,98848.00
2018-09-21T04:58:04.500Z,98850.00
2018-09-21T05:00:34.485Z,98847.00
2018-09-21T05:03:04.508Z,98845.00
2018-09-21T05:05:34.677Z,98844.00
2018-09-21T05:08:04.579Z,98841.00
2018-09-21T05:10:34.519Z,98840.00
2018-09-21T05:13:04.520Z,98837.00
2018-09-21T05:15:34.505Z,98838.00
2018-09-21T05:18:04.448Z,98837.00
2018-09-21T05:20:34.405Z,98838.00
2018-09-21T05:23:04.324Z,98832.00
2018-09-21T05:25:34.236Z,98833.00
2018-09-21T05:28:04.124Z,98840.00
2018-09-21T05:30:34.053Z,98837.00
2018-09-21T05:33:03.935Z,98844.00
2018-09-21T05:35:33.872Z,98840.00
2018-09-21T05:38:03.800Z,98847.00
2018-09-21T05:40:33.719Z,98843.00
2018-09-21T05:43:03.635Z,98837.00
2018-09-21T05:45:33.549Z,98839.00
2018-09-21T05:48:03.459Z,98840.00
2018-09-21T05:50:33.419Z,98837.00
2018-09-21T05:53:03.329Z,98832.00
2018-09-21T05:55:33.239Z,98827.00
2018-09-21T05:58:03.461Z,98826.00
2018-09-21T06:00:33.408Z,98823.00
2018-09-21T06:03:03.893Z,98824.00
2018-09-21T06:05:33.802Z,98815.00
2018-09-21T06:08:03.853Z,98821.00
2018-09-21T06:10:33.728Z,98817.00
2018-09-21T06:13:03.640Z,98816.00
2018-09-21T06:15:33.547Z,98817.00
2018-09-21T06:18:03.447Z,98808.00
2018-09-21T06:20:33.353Z,98810.00
2018-09-21T06:23:03.317Z,98806.00
2018-09-21T06:25:33.194Z,98810.00
2018-09-21T06:28:03.165Z,98813.00
2018-09-21T06:30:33.083Z,98808.00
2018-09-21T06:33:02.984Z,98804.00
2018-09-21T06:35:32.909Z,98804.00
2018-09-21T06:38:02.815Z,98797.00
2018-09-21T06:40:32.748Z,98799.00
2018-09-21T06:43:02.692Z,98791.00
2018-09-21T06:45:32.693Z,98791.00
2018-09-21T06:48:02.616Z,98795.00
2018-09-21T06:50:32.548Z,98795.00
2018-09-21T06:53:02.442Z,98793.00
2018-09-21T06:55:32.644Z,98793.00
2018-09-21T06:58:02.547Z,98793.00
2018-09-21T07:00:32.669Z,98788.00
2018-09-21T07:03:02.572Z,98780.00
2018-09-21T07:05:32.491Z,98783.00
2018-09-21T07:08:02.404Z,98784.00
2018-09-21T07:10:32.353Z,98775.00
2018-09-21T07:13:02.247Z,98782.00
2018-09-21T07:15:32.218Z,98784.00
2018-09-21T07:18:02.104Z,98783.00
2018-09-21T07:20:32.387Z,98804.00
2018-09-21T07:23:02.220Z,98790.00
2018-09-21T07:25:32.115Z,98799.00
2018-09-21T07:28:02.044Z,98800.00
2018-09-21T07:30:32.280Z,98801.00
2018-09-21T07:33:02.243Z,98802.00
2018-09-21T07:35:32.177Z,98793.00
2018-09-21T07:38:02.057Z,98798.00
2018-09-21T07:40:32.024Z,98800.00
2018-09-21T07:43:01.985Z,98801.00
2018-09-21T07:45:31.806Z,98802.00
2018-09-21T07:48:01.755Z,98795.00
2018-09-21T07:50:31.706Z,98811.00
2018-09-21T07:53:01.543Z,98817.00
2018-09-21T07:55:31.445Z,98823.00
2018-09-21T07:58:01.348Z,98821.00
2018-09-21T08:00:31.227Z,98824.00
2018-09-21T08:03:01.109Z,98812.00
2018-09-21T08:05:34.991Z,98811.00
2018-09-21T08:08:06.016Z,98810.00
2018-09-21T08:10:36.450Z,98816.00
2018-09-21T08:13:06.401Z,98816.00
2018-09-21T08:15:36.319Z,98815.00
2018-09-21T08:18:06.208Z,98823.00
2018-09-21T08:20:36.100Z,98815.00
2018-09-21T08:23:06.125Z,98807.00
2018-09-21T08:25:36.027Z,98808.00
2018-09-21T08:28:06.004Z,98817.00
2018-09-21T08:30:36.019Z,98823.00
2018-09-21T08:33:06.102Z,98830.00
2018-09-21T08:35:35.980Z,98832.00
2018-09-21T08:38:05.908Z,98834.00
2018-09-21T08:40:35.785Z,98831.00
2018-09-21T08:43:05.740Z,98829.00
2018-09-21T08:45:35.651Z,98838.00
2018-09-21T08:48:05.615Z,98840.00
2018-09-21T08:50:35.543Z,98843.00
2018-09-21T08:53:05.836Z,98838.00
2018-09-21T08:55:35.711Z,98841.00
2018-09-21T08:58:05.878Z,98836.00
2018-09-21T09:00:35.752Z,98838.00
2018-09-21T09:03:05.823Z,98825.00
2018-09-21T09:05:35.817Z,98825.00
2018-09-21T09:08:05.848Z,98822.00
2018-09-21T09:10:35.727Z,98816.00
2018-09-21T09:13:05.627Z,98819.00
2018-09-21T09:15:35.506Z,98809.00
2018-09-21T09:18:05.442Z,98816.00
2018-09-21T09:20:35.333Z,98808.00
2018-09-21T09:23:05.387Z,98807.00
2018-09-21T09:25:35.285Z,98792.00
2018-09-21T09:28:05.255Z,98793.00
2018-09-21T09:30:35.379Z,98798.00
2018-09-21T09:33:05.371Z,98792.00
2018-09-21T09:35:35.271Z,98787.00
2018-09-21T09:38:05.194Z,98790.00
2018-09-21T09:40:35.153Z,98795.00
2018-09-21T09:43:05.316Z,98798.00
2018-09-21T09:45:35.130Z,98797.00
2018-09-21T09:48:05.036Z,98796.00
2018-09-21T09:50:34.941Z,98804.00
2018-09-21T09:53:04.851Z,98799.00
2018-09-21T09:55:34.812Z,98791.00
2018-09-21T09:58:04.719Z,98798.00
2018-09-21T10:00:35.901Z,98790.00
2018-09-21T10:03:05.902Z,98791.00
2018-09-21T10:05:35.895Z,98786.00
2018-09-21T10:08:05.816Z,98793.00
2018-09-21T10:10:35.772Z,98792.00
2018-09-21T10:13:05.782Z,98808.00
2018-09-21T10:15:35.722Z,98806.00
2018-09-21T10:18:05.955Z,98788.00
2018-09-21T10:20:35.899Z,98799.00
2018-09-21T10:23:05.778Z,98795.00
2018-09-21T10:25:35.687Z,98799.00
2018-09-21T10:28:05.869Z,98793.00
2018-09-21T10:30:35.511Z,98791.00
2018-09-21T10:33:05.476Z,98802.00
2018-09-21T10:35:35.486Z,98785.00
2018-09-21T10:38:05.286Z,98771.00
2018-09-21T10:40:35.372Z,98773.00
2018-09-21T10:43:05.350Z,98765.00
2018-09-21T10:45:35.175Z,98776.00
2018-09-21T10:48:05.107Z,98782.00
2018-09-21T10:50:35.015Z,98781.00
2018-09-21T10:53:04.932Z,98780.00
2018-09-21T10:55:34.841Z,98758.00
2018-09-21T10:58:04.750Z,98759.00
2018-09-21T11:00:34.676Z,98757.00
2018-09-21T11:03:04.590Z,98750.00
2018-09-21T11:05:34.502Z,98751.00
2018-09-21T11:08:04.401Z,98737.00
2018-09-21T11:10:34.304Z,98742.00
2018-09-21T11:13:04.221Z,98739.00
2018-09-21T11:15:34.117Z,98743.00
2018-09-21T11:18:04.032Z,98746.00
2018-09-21T11:20:33.946Z,98743.00
2018-09-21T11:23:03.851Z,98747.00
2018-09-21T11:25:33.776Z,98732.00
2018-09-21T11:28:03.670Z,98742.00
2018-09-21T11:30:33.579Z,98742.00
2018-09-21T11:33:03.523Z,98752.00
2018-09-21T11:35:33.331Z,98746.00
2018-09-21T11:38:03.223Z,98763.00
2018-09-21T11:40:33.123Z,98753.00
2018-09-21T11:43:03.016Z,98750.00
2018-09-21T11:45:32.907Z,98760.00
2018-09-21T11:48:02.779Z,98749.00
2018-09-21T11:50:32.663Z,98753.00
2018-09-21T11:53:02.744Z,98760.00
2018-09-21T11:55:32.842Z,98752.00
2018-09-21T11:58:09.603Z,98755.00
2018-09-21T12:00:39.514Z,98760.00
2018-09-21T12:03:09.416Z,98769.00
2018-09-21T12:05:39.379Z,98780.00
2018-09-21T12:08:09.299Z,98780.00
2018-09-21T12:10:39.289Z,98773.00
2018-09-21T12:13:09.140Z,98781.00
2018-09-21T12:15:39.056Z,98777.00
2018-09-21T12:18:09.125Z,98788.00
2018-09-21T12:20:39.103Z,98782.00
2018-09-21T12:23:09.000Z,98785.00
2018-09-21T12:25:39.032Z,98781.00
2018-09-21T12:28:08.911Z,98779.00
2018-09-21T12:30:38.807Z,98775.00
2018-09-21T12:33:08.717Z,98767.00
2018-09-21T12:35:38.617Z,98763.00
2018-09-21T12:38:08.607Z,98756.00
2018-09-21T12:40:38.478Z,98745.00
2018-09-21T12:43:08.388Z,98734.00
2018-09-21T12:45:38.318Z,98732.00
2018-09-21T12:48:08.698Z,98726.00
2018-09-21T12:50:38.612Z,98733.00
2018-09-21T12:53:08.470Z,98753.00
2018-09-21T12:55:38.442Z,98768.00
2018-09-21T12:58:08.396Z,98764.00
2018-09-21T13:00:43.663Z,98751.00
2018-09-21T13:03:13.547Z,98723.00
2018-09-21T13:05:43.435Z,98745.00
2018-09-21T13:08:13.311Z,98749.00
2018-09-21T13:10:43.204Z,98740.00
2018-09-21T13:13:13.094Z,98744.00
2018-09-21T13:15:43.013Z,98741.00
2018-09-21T13:18:12.947Z,98746.00
2018-09-21T13:20:43.045Z,98748.00
2018-09-21T13:23:12.950Z,98745.00
2018-09-21T13:25:42.884Z,98744.00
2018-09-21T13:28:12.880Z,98734.00
2018-09-21T13:30:42.796Z,98732.00
2018-09-21T13:33:12.707Z,98737.00
2018-09-21T13:35:42.628Z,98741.00
2018-09-21T13:38:12.553Z,98741.00
2018-09-21T13:40:42.439Z,98753.00
2018-09-21T13:43:12.356Z,98784.00
2018-09-21T13:45:42.261Z,98792.00
2018-09-21T13:48:12.181Z,98774.00
2018-09-21T13:50:42.095Z,98800.00
2018-09-21T13:53:12.009Z,98784.00
2018-09-21T13:55:41.908Z,98788.00
2018-09-21T13:58:11.824Z,98776.00
2018-09-21T14:00:41.746Z,98771.00
2018-09-21T14:03:11.655Z,98782.00
2018-09-21T14:05:41.598Z,98825.00
2018-09-21T14:08:11.676Z,98872.00
2018-09-21T14:10:41.635Z,98886.00
2018-09-21T14:13:11.770Z,98879.00
2018-09-21T14:15:41.747Z,98909.00
2018-09-21T14:18:11.669Z,98957.00
2018-09-21T14:20:41.583Z,98961.00
2018-09-21T14:23:15.438Z,98964.00
2018-09-21T14:25:45.400Z,98982.00
2018-09-21T14:28:15.299Z,99025.00
2018-09-21T14:30:45.173Z,99009.00
2018-09-21T14:33:15.078Z,99019.00
2018-09-21T14:35:45.108Z,99037.00
2018-09-21T14:38:14.945Z,99041.00
2018-09-21T14:40:44.931Z,99046.00
2018-09-21T14:43:14.814Z,99066.00
2018-09-21T14:45:44.720Z,99069.00
2018-09-21T14:48:14.654Z,99080.00
2018-09-21T14:50:44.588Z,99099.00
2018-09-21T14:53:14.463Z,99081.00
2018-09-21T14:55:44.551Z,99099.00
2018-09-21T14:58:14.523Z,99107.00
2018-09-21T15:00:44.479Z,99117.00
2018-09-21T15:03:14.360Z,99132.00
2018-09-21T15:05:44.232Z,99133.00
2018-09-21T15:08:14.123Z,99124.00
2018-09-21T15:10:44.010Z,99134.00
2018-09-21T15:13:13.935Z,99137.00
2018-09-21T15:15:43.832Z,99131.00
2018-09-21T15:18:13.959Z,99132.00
2018-09-21T15:20:43.827Z,99128.00
2018-09-21T15:23:13.820Z,99126.00
2018-09-21T15:25:43.933Z,99136.00
2018-09-21T15:28:13.838Z,99156.00
2018-09-21T15:30:45.507Z,99169.00
2018-09-21T15:33:15.676Z,99187.00
2018-09-21T15:35:45.547Z,99180.00
2018-09-21T15:38:15.519Z,99181.00
2018-09-21T15:40:45.399Z,99149.00
2018-09-21T15:43:15.432Z,99155.00
2018-09-21T15:45:45.223Z,99151.00
2018-09-21T15:48:15.109Z,99161.00
2018-09-21T15:50:44.982Z,99155.00
2018-09-21T15:53:14.878Z,99161.00
2018-09-21T15:55:44.818Z,99150.00
2018-09-21T15:58:14.708Z,99165.00
2018-09-21T16:00:45.406Z,99171.00
2018-09-21T16:03:15.302Z,99180.00
2018-09-21T16:05:45.216Z,99186.00
2018-09-21T16:08:15.114Z,99178.00
2018-09-21T16:10:45.731Z,99158.00
2018-09-21T16:13:15.646Z,99163.00
2018-09-21T16:15:45.860Z,99164.00
2018-09-21T16:18:15.812Z,99183.00
2018-09-21T16:20:45.712Z,99187.00
2018-09-21T16:23:15.621Z,99192.00
2018-09-21T16:25:45.523Z,99198.00
2018-09-21T16:28:15.562Z,99198.00
2018-09-21T16:30:45.647Z,99218.00
2018-09-21T16:33:15.783Z,99218.00
2018-09-21T16:35:45.795Z,99226.00
2018-09-21T16:38:15.906Z,99240.00
2018-09-21T16:40:47.831Z,99234.00
2018-09-21T16:43:17.963Z,99241.00
2018-09-21T16:45:47.989Z,99248.00
2018-09-21T16:48:17.960Z,99248.00
2018-09-21T16:50:48.136Z,99246.00
2018-09-21T16:53:18.039Z,99255.00
2018-09-21T16:55:48.005Z,99249.00
2018-09-21T16:58:17.997Z,99256.00
2018-09-21T17:00:48.175Z,99261.00
2018-09-21T17:03:18.648Z,99260.00
2018-09-21T17:05:48.638Z,99263.00
2018-09-21T17:08:18.580Z,99257.00
2018-09-21T17:10:48.498Z,99259.00
2018-09-21T17:13:18.423Z,99278.00
2018-09-21T17:15:48.359Z,99285.00
2018-09-21T17:18:18.388Z,99293.00
2018-09-21T17:20:48.765Z,99297.00
2018-09-21T17:23:18.639Z,99296.00
2018-09-21T17:25:48.599Z,99305.00
2018-09-21T17:28:21.242Z,99308.00
2018-09-21T17:30:54.300Z,99315.00
2018-09-21T17:33:27.132Z,99324.00
2018-09-21T17:35:59.638Z,99321.00
2018-09-21T17:38:31.062Z,99325.00
2018-09-21T17:41:05.669Z,99331.00
2018-09-21T17:43:35.985Z,99339.00
2018-09-21T17:46:07.843Z,99349.00
2018-09-21T17:48:38.074Z,99355.00
2018-09-21T17:51:12.168Z,99364.00
2018-09-21T17:53:42.321Z,99376.00
2018-09-21T17:56:12.496Z,99374.00
2018-09-21T17:58:42.485Z,99383.00
2018-09-21T18:01:12.369Z,99392.00
2018-09-21T18:03:42.291Z,99399.00
2018-09-21T18:06:12.434Z,99400.00
2018-09-21T18:08:42.300Z,99410.00
2018-09-21T18:11:14.004Z,99423.00
2018-09-21T18:13:43.874Z,99417.00
2018-09-21T18:16:13.936Z,99418.00
2018-09-21T18:18:44.783Z,99428.00
2018-09-21T18:21:15.782Z,99434.00
2018-09-21T18:23:45.657Z,99437.00
2018-09-21T18:26:15.621Z,99443.00
2018-09-21T18:28:45.504Z,99447.00
2018-09-21T18:31:15.440Z,99456.00
2018-09-21T18:33:45.350Z,99459.00
2018-09-21T18:36:15.223Z,99461.00
2018-09-21T18:38:45.207Z,99464.00
2018-09-21T18:41:15.100Z,99464.00
2018-09-21T18:43:45.343Z,99473.00
2018-09-21T18:46:15.231Z,99468.00
2018-09-21T18:48:45.203Z,99473.00
2018-09-21T18:51:15.132Z,99480.00
2018-09-21T18:53:45.134Z,99489.00
2018-09-21T18:56:15.300Z,99494.00
2018-09-21T18:58:45.200Z,99498.00
2018-09-21T19:01:15.395Z,99497.00
2018-09-21T19:03:45.260Z,99497.00
2018-09-21T19:06:15.162Z,99497.00
2018-09-21T19:08:45.047Z,99504.00
2018-09-21T19:11:15.007Z,99505.00
2018-09-21T19:13:44.891Z,99510.00
2018-09-21T19:16:15.326Z,99511.00
2018-09-21T19:18:45.315Z,99516.00
2018-09-21T19:21:16.020Z,99520.00
2018-09-21T19:23:45.934Z,99521.00
2018-09-21T19:26:16.503Z,99522.00
2018-09-21T19:28:46.402Z,99532.00
2018-09-21T19:31:16.329Z,99541.00
2018-09-21T19:33:46.427Z,99542.00
2018-09-21T19:36:16.422Z,99555.00
2018-09-21T19:38:46.544Z,99560.00
2018-09-21T19:41:16.480Z,99571.00
2018-09-21T19:43:47.501Z,99577.00
2018-09-21T19:46:17.403Z,99576.00
2018-09-21T19:48:47.554Z,99580.00
2018-09-21T19:51:24.489Z,99581.00
2018-09-21T19:53:54.445Z,99584.00
2018-09-21T19:56:24.428Z,99585.00
2018-09-21T19:58:54.320Z,99591.00
2018-09-21T20:01:24.225Z,99589.00
2018-09-21T20:03:54.220Z,99592.00
2018-09-21T20:06:26.390Z,99605.00
2018-09-21T20:08:56.340Z,99612.00
2018-09-21T20:11:26.254Z,99621.00
2018-09-21T20:13:56.310Z,99625.00
2018-09-21T20:16:26.364Z,99629.00
2018-09-21T20:18:56.423Z,99629.00
2018-09-21T20:21:26.364Z,99629.00
2018-09-21T20:23:56.315Z,99634.00
2018-09-21T20:26:26.255Z,99642.00
2018-09-21T20:28:56.220Z,99645.00
2018-09-21T20:31:31.517Z,99646.00
2018-09-21T20:34:01.436Z,99653.00
2018-09-21T20:36:31.391Z,99655.00
2018-09-21T20:39:01.307Z,99650.00
2018-09-21T20:41:31.235Z,99653.00
2018-09-21T20:44:01.157Z,99658.00
2018-09-21T20:46:31.071Z,99659.00
2018-09-21T20:49:01.000Z,99661.00
2018-09-21T20:51:30.934Z,99665.00
2018-09-21T20:54:00.843Z,99663.00
2018-09-21T20:56:30.767Z,99669.00
2018-09-21T20:59:00.681Z,99676.00
2018-09-21T21:01:30.652Z,99679.00
2018-09-21T21:04:00.586Z,99672.00
2018-09-21T21:06:30.511Z,99673.00
2018-09-21T21:09:00.420Z,99677.00
2018-09-21T21:11:30.364Z,99692.00
2018-09-21T21:14:00.263Z,99701.00
2018-09-21T21:16:30.228Z,99709.00
2018-09-21T21:19:00.135Z,99702.00
2018-09-21T21:21:30.056Z,99710.00
2018-09-21T21:23:59.965Z,99714.00
2018-09-21T21:26:29.887Z,99715.00
2018-09-21T21:28:59.816Z,99717.00
2018-09-21T21:31:29.743Z,99718.00
2018-09-21T21:33:59.671Z,99717.00
2018-09-21T21:36:29.599Z,99721.00
2018-09-21T21:38:59.515Z,99718.00
2018-09-21T21:41:29.456Z,99724.00
2018-09-21T21:43:59.367Z,99725.00
2018-09-21T21:46:29.279Z,99737.00
2018-09-21T21:48:59.201Z,99745.00
2018-09-21T21:51:29.138Z,99743.00
2018-09-21T21:53:59.043Z,99742.00
2018-09-21T21:56:28.960Z,99746.00
2018-09-21T21:58:58.890Z,99748.00
2018-09-21T22:01:33.971Z,99758.00
2018-09-21T22:04:03.867Z,99764.00
2018-09-21T22:06:33.783Z,99767.00
2018-09-21T22:09:04.813Z,99765.00
2018-09-21T22:11:40.090Z,99774.00
2018-09-21T22:14:10.895Z,99774.00
2018-09-21T22:16:40.843Z,99778.00
2018-09-21T22:19:11.337Z,99793.00
2018-09-21T22:21:41.271Z,99791.00
2018-09-21T22:24:11.191Z,99776.00
2018-09-21T22:26:41.141Z,99784.00
2018-09-21T22:29:11.065Z,99786.00
2018-09-21T22:31:41.010Z,99779.00
2018-09-21T22:34:10.944Z,99781.00
2018-09-21T22:36:40.855Z,99776.00
2018-09-21T22:39:10.779Z,99781.00
2018-09-21T22:41:40.693Z,99775.00
2018-09-21T22:44:10.618Z,99787.00
2018-09-21T22:46:40.540Z,99799.00
2018-09-21T22:49:18.016Z,99800.00
2018-09-21T22:51:48.451Z,99795.00
2018-09-21T22:54:18.582Z,99796.00
2018-09-21T22:56:48.503Z,99797.00
2018-09-21T22:59:18.425Z,99802.00
2018-09-21T23:01:48.335Z,99803.00
2018-09-21T23:04:18.255Z,99809.00
2018-09-21T23:06:48.180Z,99801.00
2018-09-21T23:09:18.092Z,99793.00
2018-09-21T23:11:48.086Z,99802.00
2018-09-21T23:14:18.023Z,99803.00
2018-09-21T23:16:47.954Z,99808.00
2018-09-21T23:19:17.874Z,99803.00
2018-09-21T23:21:47.795Z,99802.00
2018-09-21T23:24:17.730Z,99810.00
2018-09-21T23:26:47.659Z,99818.00
2018-09-21T23:29:17.581Z,99818.00
2018-09-21T23:31:47.514Z,99819.00
2018-09-21T23:34:17.431Z,99825.00
2018-09-21T23:36:47.348Z,99826.00
2018-09-21T23:39:17.266Z,99826.00
2018-09-21T23:41:47.219Z,99829.00
2018-09-21T23:44:17.131Z,99841.00
2018-09-21T23:46:47.071Z,99838.00
2018-09-21T23:49:17.000Z,99847.00
2018-09-21T23:51:46.915Z,99851.00
2018-09-21T23:54:16.846Z,99848.00
2018-09-21T23:56:46.743Z,99844.00
2018-09-21T23:59:16.658Z,99846.00
